首页
METAR-TAF:

METAR-TAF

机场 :

阿道弗·苏亚雷斯马德里-巴拉哈斯机场

马德里, 西班牙

纬度: 40-27N, 经度: 003-33W, 海拔: 609米

当前天气观测

该预报发布于39分钟前的23:30 UTC
风速6节,风向东南
温度 25°C
湿度 44%
气压 1019 hPa
能见度10公里或以上
1500米以下无云,无积雨云

METAR: LEMD 192330Z 13006KT CAVOK 25/12 Q1019 NOSIG

时间: 02:09 (00:09 UTC)

预报

该预报发布于1小时和9分钟前的23:00 UTC
预报有效从20日的 00点(UTC)到 21日的 06点(UTC)
风速5节,风向多变
能见度10公里或以上
1500米以下无云,无积雨云
几率 30% :
短暂存在
从 20日的 00点(UTC)到 20日的 03点(UTC)
风速7节,风向南转南东
成为
从 20日的 02点(UTC)到 20日的 03点(UTC)
风速7节,风向东转东北
几率 30% :
短暂存在
从 20日的 10点(UTC)到 20日的 17点(UTC)
风速7节,风向南转南东
几率 40% :
短暂存在
从 20日的 13点(UTC)到 20日的 19点(UTC)
少量云层高于4500英尺, 塔状积云.
成为
从 20日的 17点(UTC)到 20日的 18点(UTC)
风速8节,风向东北

TAF: LEMD 192300Z 2000/2106 VRB05KT CAVOK TX34/2015Z TN18/2005Z PROB30 TEMPO 2000/2003 16007KT BECMG 2002/2003 06007KT PROB30 TEMPO 2010/2017 16007KT PROB40 TEMPO 2013/2019 FEW045TCU BECMG 2017/2018 04008KT

超过4000个机场的气象观测和天气预报(METAR&TAF报告)。

可查询的气象台以黄色和红色小点在地图上表示。

将鼠标移到小点上方,可查看气象台名称。

然后点击查看天气观测和预报。

如需切换地图:点击带黑十字的绿色按钮放大地图;点击带横线的绿色按钮缩小地图;或者点击绿色箭头查看邻近地区的地图。


METAR-TAF: